Time;durP1;ratioP1;P1;durP2;ratioP2;P2;SDS_P1;SDS_P2;PMS_P1;PMS_P2;Temp;Humidity;BMP_temperature;BMP_pressure;BME280_temperature;BME280_humidity;BME280_pressure;Samples;Min_cycle;Max_cycle;Signal;HPM_P1;HPM_P2
2023/08/03 00:01:24;;;;;;;7.85;3.15;;;;;;;16.55;85.30;96720.97;5028613;28;20048;-83
2023/08/03 00:03:49;;;;;;;7.07;1.98;;;;;;;16.51;85.35;96720.06;5028443;28;20034;-83
2023/08/03 00:06:14;;;;;;;6.28;2.47;;;;;;;16.39;85.30;96715.44;5041598;28;20029;-82
2023/08/03 00:08:40;;;;;;;9.68;3.00;;;;;;;16.38;85.34;96725.41;5017104;28;20447;-82
2023/08/03 00:11:05;;;;;;;11.95;4.50;;;;;;;16.58;84.86;96736.47;4994143;28;20057;-82
2023/08/03 00:13:31;;;;;;;7.82;2.55;;;;;;;16.34;84.64;96719.13;5027014;28;20104;-82
2023/08/03 00:15:56;;;;;;;6.80;2.47;;;;;;;16.40;84.78;96719.72;4996343;28;20075;-81
2023/08/03 00:18:21;;;;;;;8.80;2.25;;;;;;;16.45;84.78;96725.66;5011730;28;20033;-82
2023/08/03 00:20:47;;;;;;;5.97;2.22;;;;;;;16.14;85.70;96714.66;5011566;28;20048;-82
2023/08/03 00:23:13;;;;;;;7.65;2.45;;;;;;;16.35;85.14;96722.63;5026478;28;20089;-82
2023/08/03 00:25:38;;;;;;;8.68;2.92;;;;;;;16.36;85.09;96721.50;5025482;28;20446;-81
2023/08/03 00:28:04;;;;;;;4.97;2.15;;;;;;;16.37;84.49;96729.25;5028754;28;20120;-82
2023/08/03 00:30:29;;;;;;;10.75;2.65;;;;;;;16.20;85.87;96716.03;5027458;28;20366;-82
2023/08/03 00:32:55;;;;;;;5.10;2.05;;;;;;;16.30;84.12;96725.53;5042567;28;20095;-81
2023/08/03 00:35:20;;;;;;;9.85;2.80;;;;;;;16.36;84.96;96722.28;5010601;28;20084;-81
2023/08/03 00:37:45;;;;;;;5.15;2.30;;;;;;;16.28;84.58;96712.41;5027577;28;20061;-82
2023/08/03 00:40:11;;;;;;;8.82;1.92;;;;;;;16.16;84.31;96700.88;5010357;28;20037;-82
2023/08/03 00:42:36;;;;;;;9.77;2.72;;;;;;;16.30;84.29;96718.25;5027010;28;20071;-81
2023/08/03 00:45:03;;;;;;;10.90;2.92;;;;;;;16.22;85.03;96713.78;5010007;28;20037;-81
2023/08/03 00:47:28;;;;;;;7.28;2.22;;;;;;;16.27;84.66;96708.13;5025896;28;20026;-84
2023/08/03 00:49:54;;;;;;;9.13;2.45;;;;;;;16.29;84.42;96703.19;5030078;28;20036;-81
2023/08/03 00:52:20;;;;;;;5.95;2.08;;;;;;;16.31;84.48;96692.13;5028062;28;20527;-81
2023/08/03 00:54:45;;;;;;;8.00;2.10;;;;;;;16.29;83.75;96695.13;5007567;28;20362;-82
2023/08/03 00:57:11;;;;;;;10.73;2.75;;;;;;;16.38;83.78;96703.13;5028443;28;20025;-82
2023/08/03 00:59:36;;;;;;;6.18;2.28;;;;;;;16.14;84.50;96693.13;5012489;28;20068;-81
2023/08/03 01:02:01;;;;;;;4.25;2.22;;;;;;;16.18;84.25;96682.47;5027179;28;20030;-81
2023/08/03 01:04:27;;;;;;;9.27;2.60;;;;;;;16.30;83.85;96704.78;5020548;28;20045;-82
2023/08/03 01:06:52;;;;;;;8.07;2.50;;;;;;;16.33;83.87;96712.19;5025592;28;20033;-81
2023/08/03 01:09:18;;;;;;;9.73;2.50;;;;;;;16.22;84.45;96713.78;5041284;28;20410;-82
2023/08/03 01:11:43;;;;;;;5.13;2.50;;;;;;;16.11;84.55;96726.09;5009013;28;20029;-81
2023/08/03 01:14:10;;;;;;;11.50;2.63;;;;;;;16.10;84.80;96723.72;5042037;28;20128;-82
2023/08/03 01:16:35;;;;;;;5.65;2.28;;;;;;;15.89;85.80;96729.22;5028632;28;20033;-82
2023/08/03 01:19:01;;;;;;;11.32;3.15;;;;;;;15.95;85.51;96727.06;5027497;28;20400;-82
2023/08/03 01:21:30;;;;;;;11.30;2.35;;;;;;;15.98;84.94;96708.38;5031350;28;20390;-81
2023/08/03 01:23:55;;;;;;;10.68;2.92;;;;;;;16.00;85.15;96716.91;5009366;28;20026;-81
2023/08/03 01:26:21;;;;;;;8.07;2.38;;;;;;;15.92;85.77;96704.34;5027804;28;20040;-80
2023/08/03 01:28:46;;;;;;;6.78;1.95;;;;;;;15.99;85.61;96712.63;5016746;28;20041;-81
2023/08/03 01:31:11;;;;;;;5.28;2.35;;;;;;;15.87;86.76;96718.00;5032598;28;20132;-81
2023/08/03 01:33:37;;;;;;;9.93;2.72;;;;;;;15.91;85.75;96701.97;5032484;28;20088;-81
2023/08/03 01:36:03;;;;;;;9.57;2.75;;;;;;;15.98;86.11;96716.44;5014226;28;20496;-82
2023/08/03 01:38:28;;;;;;;6.40;2.28;;;;;;;16.07;85.47;96703.69;5012359;28;20037;-81
2023/08/03 01:40:54;;;;;;;12.25;2.92;;;;;;;15.97;86.57;96716.75;5028122;28;20026;-81
2023/08/03 01:43:19;;;;;;;7.85;1.90;;;;;;;16.04;85.75;96719.69;5014466;28;20041;-82
2023/08/03 01:45:45;;;;;;;8.65;2.97;;;;;;;15.79;86.86;96702.75;5030622;28;20025;-82
2023/08/03 01:48:10;;;;;;;13.73;2.70;;;;;;;15.77;87.16;96721.09;5013613;28;20126;-82
2023/08/03 01:50:35;;;;;;;9.88;2.63;;;;;;;15.77;86.95;96709.56;5032767;28;20389;-82
2023/08/03 01:53:04;;;;;;;10.68;2.45;;;;;;;15.77;86.84;96721.91;5048357;28;20397;-82
2023/08/03 01:55:29;;;;;;;6.35;2.55;;;;;;;15.88;86.54;96719.56;5031546;28;20078;-82
2023/08/03 01:57:55;;;;;;;5.53;1.90;;;;;;;15.95;86.40;96719.00;4995986;28;20037;-82
2023/08/03 02:00:20;;;;;;;10.27;2.55;;;;;;;15.98;86.01;96712.97;5013735;28;20041;-81
2023/08/03 02:02:45;;;;;;;8.23;3.05;;;;;;;16.01;85.80;96705.00;5030873;28;20022;-82
2023/08/03 02:05:11;;;;;;;6.13;2.38;;;;;;;16.02;86.00;96720.03;5029892;28;20742;-82
2023/08/03 02:07:53;;;;;;;6.43;2.70;;;;;;;15.99;86.13;96707.25;5026342;28;20029;-82
2023/08/03 02:10:20;;;;;;;5.30;2.30;;;;;;;15.95;86.86;96714.41;5028939;28;20030;-81
2023/08/03 02:12:46;;;;;;;12.30;3.00;;;;;;;15.96;86.47;96713.31;5032298;28;20033;-82
2023/08/03 02:15:13;;;;;;;6.72;2.63;;;;;;;15.99;86.25;96696.47;5030828;28;20025;-81
2023/08/03 02:17:39;;;;;;;6.75;2.33;;;;;;;15.88;86.86;96679.19;5030736;28;20393;-82
2023/08/03 02:20:05;;;;;;;6.25;2.40;;;;;;;16.14;85.86;96693.13;5028942;28;20029;-82
2023/08/03 02:22:30;;;;;;;6.50;2.00;;;;;;;15.97;86.76;96689.84;5030850;28;20036;-82
2023/08/03 02:24:56;;;;;;;6.05;2.08;;;;;;;15.95;86.79;96692.09;5029395;28;20033;-82
2023/08/03 02:27:21;;;;;;;5.50;2.42;;;;;;;15.96;86.49;96694.47;5030337;28;20556;-83
2023/08/03 02:29:46;;;;;;;8.85;2.45;;;;;;;15.95;86.29;96690.19;5029501;28;20034;-82
2023/08/03 02:32:12;;;;;;;4.75;1.80;;;;;;;15.92;86.55;96690.09;5031559;28;20068;-82
2023/08/03 02:34:37;;;;;;;5.13;2.17;;;;;;;15.82;87.05;96688.63;5031581;28;20117;-82
2023/08/03 02:37:02;;;;;;;6.80;2.83;;;;;;;15.62;87.67;96687.56;5028731;28;20488;-82
2023/08/03 02:39:28;;;;;;;4.60;1.80;;;;;;;15.80;87.11;96692.75;5044497;28;20037;-82
2023/08/03 02:41:53;;;;;;;6.70;2.05;;;;;;;15.87;86.83;96704.53;5030561;28;20026;-82
2023/08/03 02:44:18;;;;;;;6.90;2.08;;;;;;;15.69;86.81;96692.41;5013602;28;20041;-82
2023/08/03 02:46:44;;;;;;;11.82;2.30;;;;;;;15.64;86.89;96687.22;5044635;28;20025;-82
2023/08/03 02:49:09;;;;;;;9.10;1.85;;;;;;;15.86;86.21;96718.34;5014428;28;20408;-83
2023/08/03 02:51:35;;;;;;;7.25;1.60;;;;;;;15.61;87.26;96695.97;5030422;28;20113;-82
2023/08/03 02:54:00;;;;;;;4.95;1.95;;;;;;;15.83;86.86;96702.84;5014336;28;20060;-83
2023/08/03 02:56:25;;;;;;;5.00;1.58;;;;;;;15.75;87.01;96699.94;5030300;28;20059;-83
2023/08/03 02:58:51;;;;;;;2.88;1.38;;;;;;;15.65;86.79;96675.38;5013909;28;20080;-82
2023/08/03 03:01:16;;;;;;;6.43;1.80;;;;;;;15.77;86.60;96666.53;5011579;28;20045;-83
2023/08/03 03:03:41;;;;;;;11.25;2.72;;;;;;;15.73;87.14;96682.53;5028598;28;20033;-83
2023/08/03 03:06:07;;;;;;;8.60;2.55;;;;;;;15.65;86.99;96681.53;4998051;28;20022;-83
2023/08/03 03:08:32;;;;;;;3.05;1.27;;;;;;;15.73;86.92;96683.34;5025910;28;20144;-83
2023/08/03 03:10:58;;;;;;;7.15;1.80;;;;;;;15.75;87.17;96699.94;5025727;28;20033;-83
2023/08/03 03:13:23;;;;;;;4.25;2.00;;;;;;;15.65;87.48;96700.38;5029703;28;20052;-82
2023/08/03 03:15:49;;;;;;;5.97;1.50;;;;;;;15.70;86.92;96702.81;5031559;28;20040;-82
2023/08/03 03:18:14;;;;;;;4.28;1.95;;;;;;;15.58;87.11;96707.38;5029585;28;20556;-83
2023/08/03 03:20:39;;;;;;;2.25;1.50;;;;;;;15.61;87.50;96709.44;5013706;28;20389;-82
2023/08/03 03:23:05;;;;;;;10.00;1.63;;;;;;;15.55;87.25;96702.69;5025015;28;20029;-83
2023/08/03 03:25:30;;;;;;;6.65;1.70;;;;;;;15.67;86.70;96705.41;5029864;28;20396;-84
2023/08/03 03:27:56;;;;;;;2.97;2.13;;;;;;;15.58;87.46;96708.19;5007826;28;20064;-82
2023/08/03 03:30:21;;;;;;;5.68;1.58;;;;;;;15.48;86.98;96703.25;5013510;28;20041;-82
2023/08/03 03:32:47;;;;;;;10.77;2.03;;;;;;;15.50;87.75;96727.09;5012165;28;20203;-83
2023/08/03 03:35:12;;;;;;;4.05;1.80;;;;;;;15.62;87.23;96719.84;5029342;28;20056;-84
2023/08/03 03:37:38;;;;;;;9.30;2.00;;;;;;;15.61;86.86;96709.44;5031378;28;20480;-82
2023/08/03 03:40:04;;;;;;;3.45;1.90;;;;;;;15.42;87.38;96719.88;5028649;28;20397;-82
2023/08/03 03:42:29;;;;;;;8.43;1.48;;;;;;;15.48;88.21;96726.63;5012567;28;20037;-83
2023/08/03 03:44:54;;;;;;;11.40;1.88;;;;;;;15.68;86.75;96725.81;5029012;28;20034;-83
2023/08/03 03:47:20;;;;;;;5.05;2.13;;;;;;;15.63;86.58;96728.69;5012743;28;20397;-83
2023/08/03 03:49:46;;;;;;;4.30;1.38;;;;;;;15.63;87.15;96737.56;5029576;28;20386;-83
2023/08/03 03:52:12;;;;;;;7.25;1.77;;;;;;;15.57;87.13;96728.09;5008772;28;20103;-82
2023/08/03 03:54:37;;;;;;;9.48;1.98;;;;;;;15.41;86.87;96712.91;5008426;28;20531;-82
2023/08/03 03:57:03;;;;;;;5.47;1.60;;;;;;;15.67;86.44;96749.22;5025218;28;20424;-82
2023/08/03 03:59:28;;;;;;;6.53;1.65;;;;;;;15.66;86.89;96741.50;5025923;28;20968;-81
2023/08/03 04:01:54;;;;;;;3.10;1.75;;;;;;;15.55;86.91;96733.03;5007790;28;20099;-82
2023/08/03 04:04:19;;;;;;;7.07;1.92;;;;;;;15.55;87.35;96732.28;5025041;28;20029;-82
2023/08/03 04:06:44;;;;;;;4.35;1.70;;;;;;;15.61;86.92;96749.75;5024345;28;20037;-82
2023/08/03 04:09:10;;;;;;;7.00;1.83;;;;;;;15.54;87.07;96747.63;5012768;28;20572;-83
2023/08/03 04:11:35;;;;;;;5.15;1.60;;;;;;;15.53;86.96;96748.72;5026299;28;20030;-82
2023/08/03 04:14:00;;;;;;;4.15;1.48;;;;;;;15.62;86.69;96764.75;5023360;28;20037;-82
2023/08/03 04:16:26;;;;;;;6.35;1.40;;;;;;;15.48;86.80;96746.25;5039163;28;20041;-82
2023/08/03 04:18:51;;;;;;;6.72;1.80;;;;;;;15.75;86.02;96772.56;5011279;28;20124;-83
2023/08/03 04:21:16;;;;;;;7.00;1.27;;;;;;;15.65;86.07;96758.75;5027528;28;20033;-82
2023/08/03 04:23:42;;;;;;;8.70;2.53;;;;;;;15.75;86.24;96772.56;5029451;28;20064;-83
2023/08/03 04:26:07;;;;;;;7.57;1.60;;;;;;;15.71;86.39;96777.03;5012656;28;20052;-84
2023/08/03 04:28:33;;;;;;;2.47;1.17;;;;;;;15.45;86.99;96765.72;5009408;28;20432;-83
2023/08/03 04:30:58;;;;;;;5.30;1.50;;;;;;;15.68;86.83;96793.06;5030226;28;20116;-82
2023/08/03 04:33:24;;;;;;;7.43;1.50;;;;;;;15.66;86.12;96771.84;5028815;28;20436;-82
2023/08/03 04:35:49;;;;;;;3.55;1.52;;;;;;;15.65;87.02;96785.63;5026774;28;20124;-83
2023/08/03 04:38:14;;;;;;;3.53;1.40;;;;;;;15.64;86.63;96784.03;5026454;28;20034;-83
2023/08/03 04:40:40;;;;;;;4.38;1.73;;;;;;;15.53;86.54;96780.97;5011490;28;20630;-83
2023/08/03 04:43:05;;;;;;;3.90;1.58;;;;;;;15.60;86.69;96804.66;5043002;28;20112;-83
2023/08/03 04:45:30;;;;;;;2.45;1.13;;;;;;;15.67;86.58;96783.41;5028667;28;20123;-83
2023/08/03 04:47:56;;;;;;;6.88;1.40;;;;;;;15.72;86.06;96791.25;5010647;28;20092;-82
2023/08/03 04:50:22;;;;;;;2.38;1.08;;;;;;;15.63;86.65;96791.34;5028537;28;20034;-82
2023/08/03 04:52:47;;;;;;;7.38;1.90;;;;;;;15.53;86.50;96783.69;5025646;28;20505;-82
2023/08/03 04:55:13;;;;;;;6.38;2.00;;;;;;;15.58;87.06;96786.16;5027883;28;20033;-82
2023/08/03 04:57:38;;;;;;;4.35;1.08;;;;;;;15.65;86.56;96802.56;5028958;28;20084;-83
2023/08/03 05:00:04;;;;;;;3.28;1.67;;;;;;;15.69;86.63;96799.97;5028648;28;20039;-82
2023/08/03 05:02:30;;;;;;;5.07;1.33;;;;;;;15.74;87.10;96815.94;5025402;28;20710;-83
2023/08/03 05:04:57;;;;;;;1.45;1.00;;;;;;;15.86;86.10;96807.88;5002182;28;20041;-82
2023/08/03 05:07:23;;;;;;;2.72;1.70;;;;;;;15.89;86.45;96826.06;5028634;28;20065;-82
2023/08/03 05:09:48;;;;;;;6.95;1.23;;;;;;;15.83;86.60;96816.63;5027898;28;20095;-82
2023/08/03 05:12:14;;;;;;;4.35;0.88;;;;;;;15.84;86.73;96845.09;5025897;28;20038;-83
2023/08/03 05:14:39;;;;;;;3.03;1.25;;;;;;;15.75;86.90;96809.41;5027935;28;20490;-82
2023/08/03 05:17:05;;;;;;;2.30;0.90;;;;;;;15.70;87.33;96806.94;4994915;28;20040;-82
2023/08/03 05:19:30;;;;;;;3.28;1.30;;;;;;;15.59;87.31;96820.03;5027694;28;20033;-82
2023/08/03 05:21:57;;;;;;;4.40;1.15;;;;;;;15.62;87.53;96835.47;4994154;28;20115;-83
2023/08/03 05:24:22;;;;;;;1.90;1.42;;;;;;;15.80;86.86;96835.31;5023115;28;20117;-82
2023/08/03 05:26:48;;;;;;;1.02;0.95;;;;;;;15.72;87.20;96826.22;5027049;28;20057;-82
2023/08/03 05:29:13;;;;;;;2.05;0.90;;;;;;;15.83;87.02;96848.91;5027273;28;20033;-82
2023/08/03 05:31:39;;;;;;;2.20;0.95;;;;;;;15.65;87.53;96840.22;5027524;28;20370;-85
2023/08/03 05:34:04;;;;;;;4.53;1.10;;;;;;;15.72;87.74;96853.94;5027493;28;20030;-82
2023/08/03 05:36:29;;;;;;;2.65;0.90;;;;;;;15.68;88.09;96844.16;5009441;28;20048;-84
2023/08/03 05:38:55;;;;;;;4.60;1.10;;;;;;;15.83;87.08;96854.31;5042526;28;20378;-84
2023/08/03 05:41:22;;;;;;;4.60;1.02;;;;;;;15.83;87.79;96840.84;5010036;28;20021;-84
2023/08/03 05:43:48;;;;;;;1.85;0.85;;;;;;;15.70;87.61;96839.22;5026047;28;20060;-84
2023/08/03 05:46:14;;;;;;;4.45;1.10;;;;;;;15.80;88.05;96862.22;5026418;28;20135;-84
2023/08/03 05:48:40;;;;;;;3.38;1.10;;;;;;;15.68;87.48;96838.78;5029293;28;20025;-84
2023/08/03 05:51:08;;;;;;;2.67;1.00;;;;;;;15.82;87.19;96857.31;5027851;28;20026;-83
2023/08/03 05:53:33;;;;;;;1.08;0.70;;;;;;;15.87;87.39;96865.97;5027969;28;20040;-82
2023/08/03 05:55:58;;;;;;;0.93;0.93;;;;;;;15.86;87.28;96848.25;5028212;28;20034;-84
2023/08/03 05:58:24;;;;;;;2.78;1.00;;;;;;;15.87;87.39;96863.28;5026313;28;20585;-83
2023/08/03 06:00:50;;;;;;;2.08;0.80;;;;;;;15.93;87.01;96867.34;5028450;28;20120;-82
2023/08/03 06:03:18;;;;;;;0.93;0.70;;;;;;;15.89;87.71;96863.72;5027049;28;20034;-83
2023/08/03 06:05:50;;;;;;;1.90;0.65;;;;;;;15.87;87.53;96855.22;5009755;28;20092;-81
2023/08/03 06:08:21;;;;;;;2.13;0.93;;;;;;;15.97;87.87;96873.63;5044592;28;20033;-84
2023/08/03 06:10:51;;;;;;;0.93;0.70;;;;;;;15.93;88.13;96874.59;5032995;28;20079;-81
2023/08/03 06:13:18;;;;;;;3.92;0.90;;;;;;;15.88;88.03;96870.22;5029649;28;20022;-81
2023/08/03 06:15:44;;;;;;;3.15;1.00;;;;;;;15.74;88.57;96857.06;5028488;28;20527;-81
2023/08/03 06:18:14;;;;;;;1.27;0.68;;;;;;;15.84;88.60;96871.22;5030780;28;20507;-83
2023/08/03 06:20:42;;;;;;;3.45;1.17;;;;;;;15.70;89.16;96856.13;5028361;28;20401;-83
2023/08/03 06:23:14;;;;;;;1.15;0.82;;;;;;;15.83;88.54;96878.50;5031597;28;20771;-83
2023/08/03 06:25:41;;;;;;;3.05;0.65;;;;;;;15.71;89.28;96870.38;5029486;28;20029;-83
2023/08/03 06:28:09;;;;;;;2.55;1.20;;;;;;;15.79;89.09;96880.28;5031558;28;20393;-83
2023/08/03 06:30:35;;;;;;;2.08;0.75;;;;;;;15.83;89.52;96886.59;5030774;28;20060;-83
2023/08/03 06:33:00;;;;;;;1.58;0.90;;;;;;;15.73;89.05;96878.91;5030962;28;20388;-82
2023/08/03 06:35:36;;;;;;;0.90;0.80;;;;;;;15.75;89.12;96869.38;5030055;28;20034;-83
2023/08/03 06:38:02;;;;;;;;;;;;;;;15.78;89.05;96878.69;5014279;28;20026;-80
2023/08/03 06:40:28;;;;;;;1.30;0.90;;;;;;;15.61;89.70;96879.66;5030243;28;19971;-80
2023/08/03 06:42:54;;;;;;;1.73;1.00;;;;;;;15.82;89.61;96881.50;4995450;28;20037;-82
2023/08/03 06:45:19;;;;;;;4.03;1.20;;;;;;;15.77;89.30;96877.13;5012246;28;20045;-82
2023/08/03 06:47:45;;;;;;;2.28;0.70;;;;;;;15.86;89.29;96887.84;4997394;28;20037;-82
2023/08/03 06:50:10;;;;;;;1.63;0.88;;;;;;;15.81;89.50;96885.34;5028542;28;20067;-83
2023/08/03 06:52:36;;;;;;;1.65;0.88;;;;;;;15.69;89.27;96881.47;5029315;28;20033;-83
2023/08/03 06:55:01;;;;;;;5.30;1.00;;;;;;;15.71;90.65;96918.78;5027658;28;20033;-83
2023/08/03 06:57:27;;;;;;;2.45;0.88;;;;;;;15.69;90.52;96891.44;5012053;28;20029;-82
2023/08/03 06:59:55;;;;;;;1.30;0.93;;;;;;;15.77;90.40;96902.13;4994121;28;20072;-82
2023/08/03 07:02:21;;;;;;;1.40;0.80;;;;;;;15.69;90.86;96908.38;5028502;28;20108;-82
2023/08/03 07:04:47;;;;;;;5.22;1.20;;;;;;;15.72;90.64;96904.25;5028923;28;20088;-82
2023/08/03 07:07:14;;;;;;;2.35;0.90;;;;;;;15.68;91.25;96927.53;5044282;28;20716;-82
2023/08/03 07:09:39;;;;;;;2.50;1.15;;;;;;;15.76;90.48;96899.78;5028311;28;20036;-82
2023/08/03 07:12:09;;;;;;;1.30;0.85;;;;;;;15.81;90.25;96910.34;5028545;28;20029;-82
2023/08/03 07:14:34;;;;;;;2.03;1.08;;;;;;;15.93;90.43;96921.16;5029984;28;20470;-83
2023/08/03 07:17:00;;;;;;;1.60;0.93;;;;;;;15.91;90.10;96918.00;5026824;28;20120;-83
2023/08/03 07:19:25;;;;;;;0.73;0.65;;;;;;;16.04;89.84;96941.16;5027467;28;20052;-83
2023/08/03 07:21:50;;;;;;;3.55;1.15;;;;;;;15.98;90.32;96929.03;5012017;28;20053;-83
2023/08/03 07:24:16;;;;;;;2.97;1.08;;;;;;;15.92;91.31;96937.63;5027896;28;21196;-83
2023/08/03 07:26:41;;;;;;;1.70;1.10;;;;;;;16.02;90.13;96942.59;5026564;28;20061;-84
2023/08/03 07:29:06;;;;;;;1.85;1.27;;;;;;;15.99;90.35;96946.72;5010266;28;20044;-84
2023/08/03 07:31:32;;;;;;;1.42;1.02;;;;;;;16.00;90.73;96950.22;5013214;28;20033;-83
2023/08/03 07:33:57;;;;;;;2.65;0.95;;;;;;;16.12;90.12;96956.44;5029775;28;20025;-83
2023/08/03 07:36:22;;;;;;;2.10;1.02;;;;;;;16.10;90.07;96944.41;5029129;28;20033;-83
2023/08/03 07:38:48;;;;;;;1.65;0.75;;;;;;;15.97;91.55;96943.59;5010124;28;20506;-83
2023/08/03 07:41:13;;;;;;;2.63;1.20;;;;;;;16.02;91.49;96942.59;5030575;28;20061;-84
2023/08/03 07:43:39;;;;;;;2.40;0.93;;;;;;;16.18;90.28;96941.69;5026879;28;20128;-84
2023/08/03 07:46:04;;;;;;;1.02;0.75;;;;;;;16.31;89.74;96954.06;5013390;28;20087;-84
2023/08/03 07:48:29;;;;;;;3.70;1.10;;;;;;;16.18;90.75;96933.59;5013095;28;20041;-84
2023/08/03 07:50:55;;;;;;;2.83;1.30;;;;;;;16.23;90.80;96927.19;5045307;28;20033;-83
2023/08/03 07:53:20;;;;;;;1.58;0.85;;;;;;;16.33;89.73;96922.22;4997242;28;20067;-85
2023/08/03 07:55:45;;;;;;;2.50;0.82;;;;;;;16.47;90.01;96951.50;5013187;28;20083;-84
2023/08/03 07:58:11;;;;;;;4.15;1.10;;;;;;;16.45;90.39;96934.91;5025920;28;20029;-84
2023/08/03 08:00:37;;;;;;;0.70;0.70;;;;;;;16.46;90.48;96947.25;5026652;28;20480;-84
2023/08/03 08:03:02;;;;;;;4.53;0.77;;;;;;;16.57;89.62;96937.66;5027201;28;20053;-84
2023/08/03 08:05:28;;;;;;;1.08;0.90;;;;;;;16.58;90.42;96949.25;5030640;28;20120;-83
2023/08/03 08:07:54;;;;;;;4.07;1.10;;;;;;;16.70;89.03;96966.22;5011703;28;20040;-83
2023/08/03 08:10:19;;;;;;;0.57;0.55;;;;;;;16.73;89.51;96964.75;5030858;28;20061;-85
2023/08/03 08:12:46;;;;;;;2.30;0.98;;;;;;;16.65;89.29;96955.63;5029071;28;20103;-84
2023/08/03 08:15:11;;;;;;;2.83;1.67;;;;;;;16.73;88.26;96965.53;5025607;28;20061;-84
2023/08/03 08:17:37;;;;;;;3.10;1.08;;;;;;;16.79;88.24;96966.13;5038985;28;20047;-84
2023/08/03 08:20:02;;;;;;;2.25;1.00;;;;;;;16.88;87.94;96982.97;5028670;28;20099;-84
2023/08/03 08:22:27;;;;;;;2.60;0.90;;;;;;;16.89;88.15;96971.06;5025998;28;20036;-85
2023/08/03 08:24:53;;;;;;;2.00;0.63;;;;;;;16.84;88.11;96963.22;5028830;28;20477;-84
2023/08/03 08:27:18;;;;;;;1.65;0.80;;;;;;;16.99;87.76;96984.88;5027038;28;20037;-84
2023/08/03 08:29:45;;;;;;;2.83;0.70;;;;;;;16.91;86.94;96979.59;5026207;28;20045;-84
2023/08/03 08:32:10;;;;;;;1.52;0.80;;;;;;;16.94;86.39;96970.84;5026172;28;20033;-84
2023/08/03 08:34:36;;;;;;;3.47;0.82;;;;;;;16.99;86.78;96979.50;5028640;28;20047;-85
2023/08/03 08:37:01;;;;;;;4.80;1.17;;;;;;;16.96;85.96;96971.31;5028425;28;20032;-84
2023/08/03 08:39:29;;;;;;;2.47;1.30;;;;;;;16.94;86.28;96960.06;5026956;28;20050;-83
2023/08/03 08:41:55;;;;;;;1.33;1.00;;;;;;;17.00;85.76;96978.38;5027778;28;20028;-83
2023/08/03 08:44:20;;;;;;;1.58;0.77;;;;;;;16.98;85.64;96985.22;5026538;28;20033;-83
2023/08/03 08:46:46;;;;;;;1.73;0.93;;;;;;;17.10;86.30;96990.66;5004674;28;20091;-84
2023/08/03 08:49:11;;;;;;;1.65;1.02;;;;;;;17.13;85.30;96974.59;5028059;28;20037;-84
2023/08/03 08:51:39;;;;;;;4.20;1.10;;;;;;;17.25;84.70;96979.97;5026995;28;20036;-84
2023/08/03 08:54:04;;;;;;;1.27;0.85;;;;;;;17.21;84.85;96981.00;5027856;28;20485;-84
2023/08/03 08:56:30;;;;;;;3.30;0.90;;;;;;;17.19;84.81;96991.31;5011773;28;20029;-84
2023/08/03 08:58:55;;;;;;;5.82;0.93;;;;;;;17.09;85.78;97003.34;5028428;28;20025;-84
2023/08/03 09:01:21;;;;;;;2.83;0.95;;;;;;;17.03;85.67;97014.69;5029827;28;20034;-84
2023/08/03 09:03:48;;;;;;;0.82;0.57;;;;;;;16.92;85.71;97011.63;5030342;28;20034;-85
2023/08/03 09:06:13;;;;;;;4.70;0.90;;;;;;;16.94;85.55;97009.38;5030381;28;20052;-84
2023/08/03 09:08:55;;;;;;;5.70;2.15;;;;;;;16.92;86.54;97035.88;5029254;28;20037;-83
2023/08/03 09:11:39;;;;;;;1.20;0.70;;;;;;;16.92;86.55;97035.09;5031341;28;20465;-83
2023/08/03 09:14:07;;;;;;;1.15;0.77;;;;;;;16.88;86.48;97039.56;5031522;28;20485;-83
2023/08/03 09:16:32;;;;;;;1.55;0.80;;;;;;;16.63;88.00;97027.13;5030189;28;20025;-83
2023/08/03 09:18:58;;;;;;;1.48;1.13;;;;;;;16.56;87.75;97027.66;5027581;28;20034;-83
2023/08/03 09:21:23;;;;;;;3.83;1.15;;;;;;;16.71;87.88;97048.59;5031146;28;20447;-82
2023/08/03 09:23:48;;;;;;;2.78;1.00;;;;;;;16.69;88.62;97050.84;5013527;28;20038;-82
2023/08/03 09:26:21;;;;;;;2.90;0.98;;;;;;;16.80;87.70;97046.59;5031171;28;20025;-83
2023/08/03 09:28:46;;;;;;;2.70;0.80;;;;;;;16.75;88.54;97030.66;5030047;28;20478;-83
2023/08/03 09:31:20;;;;;;;4.25;1.40;;;;;;;16.72;88.65;97052.09;5029677;28;20101;-82
2023/08/03 09:33:57;;;;;;;2.05;0.80;;;;;;;16.79;87.92;97053.13;5028591;28;20069;-83
2023/08/03 09:36:23;;;;;;;1.00;0.88;;;;;;;16.80;87.91;97056.59;5011828;28;20108;-83
2023/08/03 09:38:48;;;;;;;3.47;0.90;;;;;;;16.86;88.31;97053.34;5030607;28;20112;-84
2023/08/03 09:41:14;;;;;;;11.60;1.48;;;;;;;16.92;86.77;97046.66;5017459;28;20022;-83
2023/08/03 09:43:40;;;;;;;2.33;1.00;;;;;;;16.91;87.21;97045.06;5015960;28;20107;-84
2023/08/03 09:46:06;;;;;;;4.90;0.90;;;;;;;17.00;87.11;97056.56;5029225;28;20069;-84
2023/08/03 09:48:32;;;;;;;2.50;0.93;;;;;;;16.97;86.79;97056.44;5028304;28;20037;-83
2023/08/03 09:50:59;;;;;;;5.88;1.27;;;;;;;17.02;86.81;97058.91;5028952;28;20029;-83
2023/08/03 09:53:36;;;;;;;3.00;1.30;;;;;;;17.03;86.56;97057.81;5030012;28;20091;-84
2023/08/03 09:56:02;;;;;;;1.98;0.80;;;;;;;17.07;87.70;97064.09;5030582;28;20025;-84
2023/08/03 09:58:49;;;;;;;0.80;0.70;;;;;;;17.12;87.23;97080.84;5031881;28;20036;-84
2023/08/03 10:01:22;;;;;;;2.90;0.90;;;;;;;17.14;86.95;97075.13;5029956;28;20033;-84
2023/08/03 10:03:52;;;;;;;1.73;1.10;;;;;;;17.08;87.01;97071.06;5031410;28;20040;-84
2023/08/03 10:06:22;;;;;;;1.17;0.65;;;;;;;17.10;86.12;97069.59;5032963;28;20041;-84
2023/08/03 10:08:55;;;;;;;2.78;0.95;;;;;;;17.20;86.09;97079.19;5012547;28;20033;-84
2023/08/03 10:11:26;;;;;;;1.58;1.02;;;;;;;17.23;85.78;97089.31;5030174;28;20045;-84
2023/08/03 10:13:55;;;;;;;2.28;1.00;;;;;;;17.29;85.24;97087.16;5032314;28;20384;-84
2023/08/03 10:16:21;;;;;;;1.38;0.73;;;;;;;17.34;84.96;97082.38;5028979;28;20036;-83
2023/08/03 10:18:47;;;;;;;1.27;0.90;;;;;;;17.37;84.10;97091.66;5014643;28;20025;-84
2023/08/03 10:21:13;;;;;;;0.75;0.63;;;;;;;17.42;84.22;97086.06;5030486;28;20036;-84
2023/08/03 10:23:45;;;;;;;2.20;0.73;;;;;;;17.43;83.93;97093.06;5013027;28;20373;-83
2023/08/03 10:26:21;;;;;;;1.70;1.00;;;;;;;17.48;84.11;97107.09;5028701;28;20056;-84
2023/08/03 10:28:47;;;;;;;0.73;0.73;;;;;;;17.38;84.20;97098.66;5029884;28;20022;-84
2023/08/03 10:31:18;;;;;;;1.70;0.90;;;;;;;17.35;83.95;97100.09;5029069;28;20064;-84
2023/08/03 10:33:47;;;;;;;1.67;0.98;;;;;;;17.47;84.20;97099.34;5031022;28;20057;-84
2023/08/03 10:36:28;;;;;;;1.45;0.82;;;;;;;17.52;83.73;97102.63;5027466;28;20033;-83
2023/08/03 10:39:41;;;;;;;1.77;0.68;;;;;;;17.61;82.81;97105.22;5030047;28;20032;-84
2023/08/03 10:42:26;;;;;;;3.35;0.88;;;;;;;17.68;82.63;97102.75;5028635;28;20049;-84
2023/08/03 10:44:53;;;;;;;3.13;0.98;;;;;;;17.76;82.08;97094.56;5027016;28;20029;-84
2023/08/03 10:47:29;;;;;;;0.77;0.70;;;;;;;17.96;81.52;97090.16;5030646;28;20473;-83
2023/08/03 10:49:56;;;;;;;0.90;0.90;;;;;;;18.14;80.91;97107.72;5031907;28;20477;-83
2023/08/03 10:52:24;;;;;;;2.70;0.88;;;;;;;18.29;80.05;97104.31;5023787;28;20089;-84
2023/08/03 10:54:50;;;;;;;0.70;0.70;;;;;;;18.46;80.09;97114.09;5028428;28;20025;-84
2023/08/03 10:57:25;;;;;;;0.57;0.50;;;;;;;18.56;79.22;97119.84;5031223;28;20385;-84
2023/08/03 10:59:57;;;;;;;4.68;0.70;;;;;;;18.69;78.38;97115.16;5029417;28;20587;-84
2023/08/03 11:02:31;;;;;;;1.85;0.95;;;;;;;18.82;78.02;97110.50;5030327;28;20021;-85
2023/08/03 11:05:00;;;;;;;0.85;0.70;;;;;;;18.84;77.94;97100.13;5031002;28;20026;-85
2023/08/03 11:07:37;;;;;;;2.08;0.52;;;;;;;19.07;77.26;97106.56;5031199;28;20112;-84
2023/08/03 11:10:09;;;;;;;3.20;1.17;;;;;;;19.22;76.76;97112.00;5030059;28;20072;-84
2023/08/03 11:12:35;;;;;;;3.03;1.05;;;;;;;19.24;76.62;97106.25;5031875;28;20036;-84
2023/08/03 11:15:05;;;;;;;1.52;0.50;;;;;;;19.26;76.53;97118.28;5029874;28;20072;-84
2023/08/03 11:17:33;;;;;;;0.88;0.57;;;;;;;19.44;75.71;97126.91;5029372;28;20451;-84
2023/08/03 11:20:00;;;;;;;1.95;0.50;;;;;;;19.47;75.68;97122.72;5015308;28;20055;-84
2023/08/03 11:22:27;;;;;;;1.95;0.65;;;;;;;19.32;76.06;97116.91;5029904;28;20099;-84
2023/08/03 11:25:00;;;;;;;3.05;0.70;;;;;;;19.16;76.30;97143.16;5030576;28;20039;-84
2023/08/03 11:27:26;;;;;;;4.30;0.70;;;;;;;18.91;76.55;97130.06;5029418;28;20371;-84
2023/08/03 11:29:52;;;;;;;2.72;0.63;;;;;;;18.96;76.28;97132.53;5023089;28;20017;-84
2023/08/03 11:32:22;;;;;;;0.57;0.40;;;;;;;19.09;75.91;97140.25;5030444;28;20076;-84